createdAt,value
2018-10-19T00:01:54.086Z,67.43
2018-10-19T00:04:25.519Z,64.57
2018-10-19T00:06:56.783Z,63.67
2018-10-19T00:09:28.028Z,65.70
2018-10-19T00:11:59.520Z,64.97
2018-10-19T00:14:31.096Z,66.17
2018-10-19T00:17:03.043Z,67.67
2018-10-19T00:19:34.413Z,65.83
2018-10-19T00:22:05.966Z,66.80
2018-10-19T00:24:37.185Z,66.00
2018-10-19T00:27:09.043Z,68.33
2018-10-19T00:29:40.160Z,67.73
2018-10-19T00:32:11.593Z,68.90
2018-10-19T00:34:43.313Z,69.50
2018-10-19T00:37:14.508Z,69.03
2018-10-19T00:39:46.509Z,72.07
2018-10-19T00:42:17.785Z,70.00
2018-10-19T00:44:49.458Z,70.27
2018-10-19T00:47:20.700Z,68.00
2018-10-19T00:49:51.970Z,72.00
2018-10-19T00:52:23.274Z,69.40
2018-10-19T00:54:54.494Z,70.07
2018-10-19T00:57:25.700Z,70.17
2018-10-19T00:59:57.030Z,69.27
2018-10-19T01:02:28.288Z,72.70
2018-10-19T01:04:59.564Z,71.00
2018-10-19T01:07:30.725Z,70.73
2018-10-19T01:10:02.382Z,73.13
2018-10-19T01:12:33.603Z,71.23
2018-10-19T01:15:04.924Z,73.83
2018-10-19T01:17:36.122Z,70.17
2018-10-19T01:20:07.420Z,70.90
2018-10-19T01:22:38.702Z,75.63
2018-10-19T01:25:09.991Z,73.97
2018-10-19T01:27:41.253Z,73.87
2018-10-19T01:30:12.443Z,71.07
2018-10-19T01:32:43.665Z,72.40
2018-10-19T01:35:15.093Z,72.83
2018-10-19T01:37:46.186Z,75.37
2018-10-19T01:40:17.435Z,72.33
2018-10-19T01:42:48.645Z,70.73
2018-10-19T01:45:20.107Z,75.40
2018-10-19T01:47:51.282Z,72.40
2018-10-19T01:50:22.917Z,71.47
2018-10-19T01:52:54.242Z,76.23
2018-10-19T01:55:25.408Z,76.30
2018-10-19T01:57:56.728Z,73.33
2018-10-19T02:00:28.412Z,75.20
2018-10-19T02:02:59.935Z,74.77
2018-10-19T02:05:31.518Z,75.07
2018-10-19T02:08:02.858Z,74.73
2018-10-19T02:10:34.265Z,73.50
2018-10-19T02:13:05.513Z,74.43
2018-10-19T02:15:37.204Z,73.53
2018-10-19T02:18:08.862Z,65.80
2018-10-19T02:20:40.075Z,73.57
2018-10-19T02:23:11.342Z,72.83
2018-10-19T02:25:42.516Z,74.17
2018-10-19T02:28:14.151Z,70.87
2018-10-19T02:30:45.674Z,68.00
2018-10-19T02:33:17.125Z,68.93
2018-10-19T02:35:48.204Z,65.60
2018-10-19T02:38:19.401Z,62.33
2018-10-19T02:40:50.977Z,71.50
2018-10-19T02:43:22.655Z,65.20
2018-10-19T02:45:54.075Z,72.43
2018-10-19T02:48:25.287Z,68.40
2018-10-19T02:50:56.496Z,66.87
2018-10-19T02:53:28.143Z,69.20
2018-10-19T02:55:59.702Z,67.67
2018-10-19T02:58:30.957Z,66.43
2018-10-19T03:01:02.149Z,64.50
2018-10-19T03:03:33.412Z,69.73
2018-10-19T03:06:04.584Z,69.73
2018-10-19T03:08:36.333Z,65.70
2018-10-19T03:11:08.183Z,69.43
2018-10-19T03:13:39.314Z,66.33
2018-10-19T03:16:10.791Z,69.00
2018-10-19T03:18:41.989Z,72.80
2018-10-19T03:21:13.597Z,67.40
2018-10-19T03:23:44.799Z,73.83
2018-10-19T03:26:16.053Z,72.27
2018-10-19T03:28:47.256Z,74.23
2018-10-19T03:31:18.617Z,79.30
2018-10-19T03:33:49.758Z,72.60
2018-10-19T03:36:21.565Z,67.20
2018-10-19T03:38:52.820Z,69.40
2018-10-19T03:41:24.024Z,69.70
2018-10-19T03:43:55.512Z,70.30
2018-10-19T03:46:26.745Z,66.70
2018-10-19T03:48:58.253Z,64.97
2018-10-19T03:51:29.457Z,69.17
2018-10-19T03:54:01.115Z,78.93
2018-10-19T03:56:32.383Z,79.50
2018-10-19T03:59:03.878Z,74.60
2018-10-19T04:01:35.659Z,80.00
2018-10-19T04:04:07.215Z,87.50
2018-10-19T04:06:38.432Z,81.17
2018-10-19T04:09:13.471Z,82.07
2018-10-19T04:11:44.943Z,80.93
2018-10-19T04:14:16.259Z,86.27
2018-10-19T04:16:47.481Z,77.17
2018-10-19T04:19:19.022Z,78.33
2018-10-19T04:21:50.225Z,79.00
2018-10-19T04:24:21.993Z,77.83
2018-10-19T04:26:54.098Z,69.93
2018-10-19T04:29:25.526Z,67.63
2018-10-19T04:31:57.035Z,64.73
2018-10-19T04:34:28.472Z,68.47
2018-10-19T04:37:07.681Z,70.90
2018-10-19T04:39:38.885Z,67.70
2018-10-19T04:42:10.375Z,62.83
2018-10-19T04:44:41.594Z,61.80
2018-10-19T04:47:13.387Z,68.87
2018-10-19T04:49:44.591Z,69.63
2018-10-19T04:52:16.149Z,64.30
2018-10-19T04:54:47.824Z,65.80
2018-10-19T04:57:19.733Z,71.27
2018-10-19T04:59:50.918Z,67.60
2018-10-19T05:02:22.364Z,61.97
2018-10-19T05:04:54.014Z,67.27
2018-10-19T05:07:25.242Z,70.33
2018-10-19T05:09:56.397Z,77.50
2018-10-19T05:12:27.714Z,73.03
2018-10-19T05:14:58.897Z,71.87
2018-10-19T05:17:30.435Z,70.10
2018-10-19T05:20:20.669Z,64.00
2018-10-19T05:22:51.875Z,64.43
2018-10-19T05:25:23.438Z,67.30
2018-10-19T05:27:54.609Z,66.63
2018-10-19T05:30:25.834Z,67.97
2018-10-19T05:32:57.120Z,67.37
2018-10-19T05:35:28.308Z,68.47
2018-10-19T05:37:59.845Z,66.37
2018-10-19T05:40:31.384Z,68.63
2018-10-19T05:43:02.593Z,65.00
2018-10-19T05:45:34.067Z,66.63
2018-10-19T05:48:05.561Z,68.30
2018-10-19T05:50:36.750Z,74.63
2018-10-19T05:53:08.135Z,72.20
2018-10-19T05:55:39.543Z,69.27
2018-10-19T05:58:10.745Z,75.27
2018-10-19T06:00:42.259Z,70.37
2018-10-19T06:03:13.470Z,83.23
2018-10-19T06:05:44.676Z,67.30
2018-10-19T06:08:16.803Z,82.33
2018-10-19T06:10:48.418Z,78.03
2018-10-19T06:13:19.561Z,78.57
2018-10-19T06:15:50.993Z,71.07
2018-10-19T06:18:22.178Z,66.63
2018-10-19T06:20:53.401Z,72.10
2018-10-19T06:23:24.639Z,82.77
2018-10-19T06:25:55.920Z,72.77
2018-10-19T06:28:27.118Z,76.70
2018-10-19T06:30:58.547Z,77.60
2018-10-19T06:33:29.701Z,75.63
2018-10-19T06:36:00.910Z,83.17
2018-10-19T06:38:34.524Z,84.87
2018-10-19T06:41:03.393Z,81.83
2018-10-19T06:43:34.910Z,76.33
2018-10-19T06:46:06.773Z,82.40
2018-10-19T06:48:38.123Z,80.80
2018-10-19T06:51:09.335Z,76.13
2018-10-19T06:53:40.921Z,78.23
2018-10-19T06:56:12.517Z,82.17
2018-10-19T06:58:44.401Z,74.90
2018-10-19T07:01:15.605Z,79.70
2018-10-19T07:03:46.789Z,69.00
2018-10-19T07:06:18.020Z,66.43
2018-10-19T07:08:49.246Z,70.87
2018-10-19T07:11:20.466Z,72.97
2018-10-19T07:13:51.768Z,72.50
2018-10-19T07:16:23.213Z,64.97
2018-10-19T07:18:54.935Z,72.40
2018-10-19T07:21:26.075Z,62.33
2018-10-19T07:23:57.295Z,68.20
2018-10-19T07:26:28.722Z,69.23
2018-10-19T07:28:59.985Z,68.73
2018-10-19T07:31:31.381Z,66.47
2018-10-19T07:34:02.900Z,62.07
2018-10-19T07:36:34.271Z,61.80
2018-10-19T07:39:06.299Z,64.97
2018-10-19T07:41:38.066Z,71.07
2018-10-19T07:44:09.676Z,62.97
2018-10-19T07:46:41.063Z,69.13
2018-10-19T07:49:12.320Z,65.47
2018-10-19T07:51:43.857Z,61.67
2018-10-19T07:54:15.325Z,64.60
2018-10-19T07:56:46.710Z,62.60
2018-10-19T07:59:17.905Z,62.00
2018-10-19T08:01:49.378Z,63.83
2018-10-19T08:04:21.008Z,64.27
2018-10-19T08:06:52.478Z,65.77
2018-10-19T08:09:23.679Z,61.87
2018-10-19T08:11:55.392Z,64.97
2018-10-19T08:14:27.494Z,61.10
2018-10-19T08:16:58.689Z,63.63
2018-10-19T08:19:29.856Z,65.93
2018-10-19T08:22:01.427Z,65.73
2018-10-19T08:24:32.654Z,67.17
2018-10-19T08:27:03.875Z,67.27
2018-10-19T08:29:35.252Z,66.47
2018-10-19T08:32:07.316Z,65.43
2018-10-19T08:34:38.774Z,64.37
2018-10-19T08:37:09.949Z,58.63
2018-10-19T08:39:41.418Z,64.20
2018-10-19T08:42:12.968Z,60.03
2018-10-19T08:44:44.213Z,66.80
2018-10-19T08:47:15.448Z,67.00
2018-10-19T08:49:47.013Z,64.10
2018-10-19T08:52:18.225Z,59.07
2018-10-19T08:54:49.640Z,52.80
2018-10-19T08:57:20.872Z,57.40
2018-10-19T08:59:52.112Z,56.40
2018-10-19T09:02:23.401Z,60.53
2018-10-19T09:04:54.650Z,63.00
2018-10-19T09:07:25.867Z,51.10
2018-10-19T09:09:57.063Z,60.40
2018-10-19T09:12:28.331Z,64.93
2018-10-19T09:15:00.929Z,54.53
2018-10-19T09:17:32.594Z,52.30
2018-10-19T09:20:04.349Z,54.97
2018-10-19T09:22:35.619Z,58.73
2018-10-19T09:25:06.948Z,54.07
2018-10-19T09:27:38.217Z,60.00
2018-10-19T09:30:09.977Z,56.60
2018-10-19T09:32:41.166Z,56.20
2018-10-19T09:35:12.769Z,50.67
2018-10-19T09:37:43.931Z,52.07
2018-10-19T09:40:15.935Z,49.27
2018-10-19T09:42:47.455Z,44.00
2018-10-19T09:45:19.625Z,46.87
2018-10-19T09:47:51.052Z,51.13
2018-10-19T09:50:22.788Z,50.37
2018-10-19T09:52:54.022Z,53.43
2018-10-19T09:55:25.560Z,42.57
2018-10-19T09:57:57.102Z,44.67
2018-10-19T10:00:45.704Z,43.40
2018-10-19T10:03:17.059Z,42.13
2018-10-19T10:05:48.087Z,46.17
2018-10-19T10:08:19.588Z,45.07
2018-10-19T10:10:50.792Z,47.10
2018-10-19T10:13:22.298Z,45.47
2018-10-19T10:15:53.891Z,45.40
2018-10-19T10:18:25.456Z,43.33
2018-10-19T10:20:56.612Z,39.47
2018-10-19T10:23:27.838Z,37.10
2018-10-19T10:25:59.423Z,39.30
2018-10-19T10:28:30.692Z,41.37
2018-10-19T10:31:02.186Z,44.97
2018-10-19T10:33:33.383Z,39.00
2018-10-19T10:36:05.239Z,42.23
2018-10-19T10:38:36.513Z,42.25
2018-10-19T10:41:07.713Z,42.83
2018-10-19T10:43:39.117Z,44.90
2018-10-19T10:46:10.649Z,42.10
2018-10-19T10:48:42.055Z,40.73
2018-10-19T10:51:13.268Z,41.40
2018-10-19T10:53:44.958Z,39.57
2018-10-19T10:56:16.216Z,39.50
2018-10-19T10:58:47.766Z,42.08
2018-10-19T11:01:19.430Z,40.47
2018-10-19T11:03:50.845Z,39.27
2018-10-19T11:06:22.296Z,37.97
2018-10-19T11:08:53.499Z,40.20
2018-10-19T11:11:24.729Z,40.83
2018-10-19T11:13:56.267Z,37.93
2018-10-19T11:16:27.755Z,35.30
2018-10-19T11:18:58.946Z,37.57
2018-10-19T11:21:30.245Z,40.50
2018-10-19T11:24:01.547Z,39.67
2018-10-19T11:26:32.970Z,38.55
2018-10-19T11:29:04.541Z,40.50
2018-10-19T11:31:36.204Z,35.98
2018-10-19T11:34:07.467Z,38.67
2018-10-19T11:36:38.607Z,39.73
2018-10-19T11:39:11.169Z,38.48
2018-10-19T11:41:42.822Z,36.83
2018-10-19T11:44:14.477Z,39.35
2018-10-19T11:46:45.696Z,38.55
2018-10-19T11:49:17.469Z,37.28
2018-10-19T11:51:48.703Z,40.17
2018-10-19T11:54:19.938Z,38.23
2018-10-19T11:56:51.520Z,37.88
2018-10-19T11:59:22.727Z,38.93
2018-10-19T12:01:53.941Z,36.65
2018-10-19T12:04:25.487Z,36.58
2018-10-19T12:06:56.802Z,37.53
2018-10-19T12:09:28.003Z,35.35
2018-10-19T12:11:59.528Z,39.18
2018-10-19T12:14:31.359Z,32.78
2018-10-19T12:17:03.099Z,33.67
2018-10-19T12:19:34.572Z,37.00
2018-10-19T12:22:05.765Z,35.33
2018-10-19T12:24:37.319Z,35.52
2018-10-19T12:27:08.609Z,31.42
2018-10-19T12:29:40.003Z,34.45
2018-10-19T12:32:11.416Z,35.90
2018-10-19T12:34:42.878Z,36.25
2018-10-19T12:37:14.562Z,34.38
2018-10-19T12:39:45.968Z,34.75
2018-10-19T12:42:17.438Z,35.60
2018-10-19T12:44:49.107Z,35.68
2018-10-19T12:47:41.472Z,36.20
2018-10-19T12:50:12.783Z,33.98
2018-10-19T12:52:43.933Z,35.85
2018-10-19T12:55:15.244Z,32.78
2018-10-19T12:57:48.539Z,31.70
2018-10-19T13:00:18.064Z,32.33
2018-10-19T13:02:49.609Z,30.57
2018-10-19T13:05:20.835Z,29.70
2018-10-19T13:07:52.014Z,29.05
2018-10-19T13:10:24.125Z,28.17
2018-10-19T13:12:55.600Z,27.40
2018-10-19T13:15:26.769Z,27.70
2018-10-19T13:17:57.977Z,29.25
2018-10-19T13:20:29.778Z,30.52
2018-10-19T13:23:01.049Z,29.72
2018-10-19T13:25:32.290Z,30.20
2018-10-19T13:28:03.766Z,30.35
2018-10-19T13:30:35.268Z,32.35
2018-10-19T13:33:06.545Z,29.30
2018-10-19T13:35:37.696Z,33.05
2018-10-19T13:38:08.985Z,28.55
2018-10-19T13:40:40.199Z,31.87
2018-10-19T13:43:11.821Z,26.80
2018-10-19T13:45:43.047Z,33.25
2018-10-19T13:48:14.313Z,27.30
2018-10-19T13:50:45.552Z,32.58
2018-10-19T13:53:17.311Z,29.72
2018-10-19T13:55:48.569Z,28.85
2018-10-19T13:58:20.175Z,31.27
2018-10-19T14:00:51.739Z,29.48
2018-10-19T14:03:23.427Z,30.40
2018-10-19T14:05:54.636Z,30.15
2018-10-19T14:08:26.183Z,29.37
2018-10-19T14:10:58.255Z,25.70
2018-10-19T14:13:29.420Z,29.65
2018-10-19T14:16:01.324Z,28.30
2018-10-19T14:18:32.904Z,29.87
2018-10-19T14:21:04.638Z,30.82
2018-10-19T14:23:35.821Z,30.13
2018-10-19T14:26:07.012Z,28.83
2018-10-19T14:28:38.304Z,31.40
2018-10-19T14:31:09.513Z,31.10
2018-10-19T14:33:41.275Z,32.53
2018-10-19T14:36:12.444Z,31.67
2018-10-19T14:38:44.180Z,31.10
2018-10-19T14:41:15.674Z,31.10
2018-10-19T14:43:46.850Z,27.57
2018-10-19T14:46:18.144Z,30.63
2018-10-19T14:48:49.734Z,31.20
2018-10-19T14:51:21.127Z,30.37
2018-10-19T14:53:52.367Z,31.30
2018-10-19T14:56:24.075Z,30.90
2018-10-19T14:58:55.263Z,32.37
2018-10-19T15:01:26.506Z,29.40
2018-10-19T15:03:57.675Z,31.33
2018-10-19T15:06:29.150Z,31.83
2018-10-19T15:09:00.464Z,30.73
2018-10-19T15:11:31.764Z,31.37
2018-10-19T15:14:02.829Z,28.73
2018-10-19T15:16:34.323Z,29.63
2018-10-19T15:19:05.595Z,32.20
2018-10-19T15:21:36.770Z,32.10
2018-10-19T15:24:08.302Z,30.23
2018-10-19T15:26:39.469Z,31.17
2018-10-19T15:29:11.068Z,31.27
2018-10-19T15:31:42.417Z,30.03
2018-10-19T15:34:14.059Z,31.10
2018-10-19T15:36:45.257Z,28.13
2018-10-19T15:39:16.990Z,32.03
2018-10-19T15:41:48.392Z,34.13
2018-10-19T15:44:19.785Z,30.90
2018-10-19T15:46:51.014Z,35.10
2018-10-19T15:49:22.527Z,35.20
2018-10-19T15:51:53.957Z,33.23
2018-10-19T15:54:25.143Z,33.33
2018-10-19T15:56:56.648Z,31.80
2018-10-19T15:59:28.036Z,30.87
2018-10-19T16:01:59.235Z,31.70
2018-10-19T16:04:30.412Z,31.83
2018-10-19T16:07:01.720Z,29.57
2018-10-19T16:09:32.879Z,30.13
2018-10-19T16:12:04.077Z,29.83
2018-10-19T16:14:35.535Z,29.37
2018-10-19T16:17:06.814Z,29.07
2018-10-19T16:19:37.995Z,31.63
2018-10-19T16:22:09.625Z,31.60
2018-10-19T16:24:41.061Z,33.00
2018-10-19T16:27:12.598Z,34.37
2018-10-19T16:29:44.041Z,31.37
2018-10-19T16:32:15.721Z,34.47
2018-10-19T16:34:46.986Z,31.87
2018-10-19T16:37:18.167Z,31.77
2018-10-19T16:39:49.655Z,31.73
2018-10-19T16:42:21.213Z,30.57
2018-10-19T16:44:52.438Z,33.90
2018-10-19T16:47:24.520Z,32.87
2018-10-19T16:49:55.715Z,32.97
2018-10-19T16:54:58.321Z,35.67
2018-10-19T16:57:29.646Z,34.83
2018-10-19T17:00:00.862Z,34.20
2018-10-19T17:02:32.355Z,34.30
2018-10-19T17:05:03.638Z,35.60
2018-10-19T17:07:35.123Z,35.33
2018-10-19T17:10:06.771Z,35.03
2018-10-19T17:12:38.014Z,32.80
2018-10-19T17:15:09.494Z,34.87
2018-10-19T17:17:40.679Z,35.47
2018-10-19T17:20:11.895Z,37.43
2018-10-19T17:22:43.076Z,37.43
2018-10-19T17:25:14.341Z,35.40
2018-10-19T17:27:45.519Z,35.47
2018-10-19T17:30:17.073Z,35.67
2018-10-19T17:32:48.703Z,35.50
2018-10-19T17:35:19.910Z,37.27
2018-10-19T17:37:51.757Z,39.80
2018-10-19T17:40:23.169Z,39.93
2018-10-19T17:42:54.438Z,38.57
2018-10-19T17:45:25.626Z,41.50
2018-10-19T17:47:56.911Z,39.47
2018-10-19T17:50:28.092Z,43.97
2018-10-19T17:52:59.660Z,44.30
2018-10-19T17:55:30.799Z,44.33
2018-10-19T17:58:02.097Z,46.10
2018-10-19T18:00:33.427Z,48.07
2018-10-19T18:03:05.386Z,53.07
2018-10-19T18:05:37.019Z,53.10
2018-10-19T18:08:08.569Z,47.80
2018-10-19T18:10:40.133Z,47.23
2018-10-19T18:13:11.370Z,48.47
2018-10-19T18:15:42.709Z,50.70
2018-10-19T18:18:13.861Z,50.93
2018-10-19T18:20:45.044Z,49.73
2018-10-19T18:23:16.513Z,50.47
2018-10-19T18:25:47.463Z,46.90
2018-10-19T18:28:19.085Z,48.47
2018-10-19T18:30:50.524Z,48.27
2018-10-19T18:33:21.774Z,49.87
2018-10-19T18:35:53.393Z,49.87
2018-10-19T18:38:24.921Z,51.57
2018-10-19T18:40:56.270Z,48.40
2018-10-19T18:43:27.849Z,48.13
2018-10-19T18:45:59.070Z,49.83
2018-10-19T18:48:30.846Z,48.87
2018-10-19T18:51:02.873Z,50.77
2018-10-19T18:53:34.041Z,47.33
2018-10-19T18:56:05.339Z,52.73
2018-10-19T18:58:36.867Z,49.23
2018-10-19T19:01:08.408Z,49.47
2018-10-19T19:03:39.604Z,46.83
2018-10-19T19:06:10.844Z,49.17
2018-10-19T19:08:42.960Z,47.73
2018-10-19T19:11:14.206Z,47.17
2018-10-19T19:13:51.728Z,51.70
2018-10-19T19:16:30.324Z,48.53
2018-10-19T19:19:01.561Z,47.07
2018-10-19T19:21:33.438Z,49.30
2018-10-19T19:24:21.841Z,49.33
2018-10-19T19:26:53.786Z,48.20
2018-10-19T19:29:25.044Z,49.37
2018-10-19T19:31:56.313Z,51.07
2018-10-19T19:34:34.632Z,52.47
2018-10-19T19:37:05.862Z,50.17
2018-10-19T19:39:37.049Z,49.37
2018-10-19T19:42:26.405Z,49.10
2018-10-19T19:44:57.586Z,47.57
2018-10-19T19:47:46.526Z,51.13
2018-10-19T19:50:17.712Z,47.23
2018-10-19T19:52:49.200Z,44.17
2018-10-19T19:55:20.789Z,48.53
2018-10-19T19:57:51.985Z,53.93
2018-10-19T20:00:23.560Z,49.93
2018-10-19T20:02:55.199Z,52.83
2018-10-19T20:05:26.753Z,48.43
2018-10-19T20:07:58.044Z,49.10
2018-10-19T20:10:29.241Z,50.80
2018-10-19T20:13:00.709Z,49.70
2018-10-19T20:15:31.944Z,46.20
2018-10-19T20:18:03.244Z,45.10
2018-10-19T20:20:34.402Z,50.03
2018-10-19T20:23:05.650Z,48.60
2018-10-19T20:25:36.822Z,49.97
2018-10-19T20:28:08.330Z,49.40
2018-10-19T20:30:39.498Z,50.97
2018-10-19T20:33:11.202Z,49.70
2018-10-19T20:35:42.740Z,52.73
2018-10-19T20:38:14.086Z,52.70
2018-10-19T20:40:45.282Z,51.33
2018-10-19T20:43:16.499Z,50.67
2018-10-19T20:45:48.057Z,51.83
2018-10-19T20:48:19.404Z,50.93
2018-10-19T20:50:50.561Z,48.43
2018-10-19T20:53:21.806Z,50.37
2018-10-19T20:55:53.524Z,52.83
2018-10-19T20:58:24.664Z,51.97
2018-10-19T21:00:55.855Z,48.90
2018-10-19T21:03:27.401Z,45.43
2018-10-19T21:05:58.541Z,50.97
2018-10-19T21:08:29.758Z,50.37
2018-10-19T21:11:01.072Z,52.07
2018-10-19T21:13:32.274Z,46.93
2018-10-19T21:16:03.385Z,47.40
2018-10-19T21:18:34.989Z,49.07
2018-10-19T21:21:06.510Z,50.07
2018-10-19T21:23:37.825Z,48.47
2018-10-19T21:26:09.366Z,49.27
2018-10-19T21:28:40.470Z,48.83
2018-10-19T21:31:12.014Z,49.97
2018-10-19T21:33:43.520Z,49.93
2018-10-19T21:36:15.602Z,49.40
2018-10-19T21:38:47.214Z,43.20
2018-10-19T21:41:18.374Z,47.60
2018-10-19T21:43:49.584Z,44.70
2018-10-19T21:46:22.017Z,48.20
2018-10-19T21:48:53.552Z,48.00
2018-10-19T21:51:24.763Z,46.03
2018-10-19T21:53:56.657Z,47.53
2018-10-19T21:56:28.064Z,46.13
2018-10-19T21:58:59.302Z,47.80
2018-10-19T22:01:30.764Z,50.20
2018-10-19T22:04:01.942Z,50.17
2018-10-19T22:06:34.106Z,45.73
2018-10-19T22:09:07.056Z,47.70
2018-10-19T22:11:38.624Z,47.80
2018-10-19T22:14:10.677Z,47.40
2018-10-19T22:16:42.465Z,51.83
2018-10-19T22:19:13.744Z,52.67
2018-10-19T22:21:45.135Z,52.47
2018-10-19T22:24:16.709Z,49.47
2018-10-19T22:26:47.936Z,56.13
2018-10-19T22:29:19.148Z,50.87
2018-10-19T22:31:50.335Z,55.17
2018-10-19T22:34:21.509Z,51.67
2018-10-19T22:36:52.990Z,50.63
2018-10-19T22:39:24.434Z,51.73
2018-10-19T22:41:55.893Z,52.00
2018-10-19T22:44:27.311Z,51.40
2018-10-19T22:46:58.731Z,48.83
2018-10-19T22:49:29.931Z,48.03
2018-10-19T22:52:01.488Z,50.37
2018-10-19T22:54:32.701Z,51.40
2018-10-19T22:57:04.332Z,50.50
2018-10-19T22:59:35.846Z,49.43
2018-10-19T23:02:07.974Z,49.27
2018-10-19T23:04:39.123Z,48.03
2018-10-19T23:07:10.381Z,46.90
2018-10-19T23:09:41.868Z,47.40
2018-10-19T23:12:13.959Z,47.90
2018-10-19T23:14:45.146Z,52.80
2018-10-19T23:17:16.444Z,51.13
2018-10-19T23:19:47.895Z,56.50
2018-10-19T23:22:19.450Z,53.43
2018-10-19T23:24:50.903Z,54.13
2018-10-19T23:27:22.373Z,54.20
2018-10-19T23:29:54.068Z,53.97
2018-10-19T23:32:25.323Z,46.77
2018-10-19T23:34:57.324Z,51.13
2018-10-19T23:37:28.905Z,50.33
2018-10-19T23:40:00.536Z,52.63
2018-10-19T23:42:31.767Z,51.13
2018-10-19T23:45:02.991Z,50.77
2018-10-19T23:47:34.253Z,53.20
2018-10-19T23:50:05.654Z,56.33
2018-10-19T23:52:37.198Z,57.63
2018-10-19T23:55:08.933Z,54.10
2018-10-19T23:57:40.072Z,60.13
